Time;durP1;ratioP1;P1;durP2;ratioP2;P2;SDS_P1;SDS_P2;PMS_P1;PMS_P2;Temp;Humidity;BMP_temperature;BMP_pressure;BME280_temperature;BME280_humidity;BME280_pressure;Samples;Min_cycle;Max_cycle;Signal;HPM_P1;HPM_P2
2023/07/12 00:00:47;;;;;;;9.38;0.50;;;;;;;20.25;75.95;100448.47;7362863;19;20468;-65
2023/07/12 00:03:16;;;;;;;3.42;0.40;;;;;;;20.22;76.49;100448.91;7362279;19;20048;-66
2023/07/12 00:05:44;;;;;;;5.72;0.50;;;;;;;20.24;76.21;100443.34;7362369;19;20492;-65
2023/07/12 00:08:18;;;;;;;10.90;1.40;;;;;;;20.26;76.60;100443.94;7360899;19;20029;-66
2023/07/12 00:10:48;;;;;;;10.57;0.80;;;;;;;20.27;76.41;100442.88;7364588;19;20536;-66
2023/07/12 00:13:17;;;;;;;3.10;0.40;;;;;;;20.26;76.01;100447.44;7362894;19;20879;-65
2023/07/12 00:15:46;;;;;;;9.10;0.50;;;;;;;20.25;76.07;100444.97;7361881;19;20026;-65
2023/07/12 00:18:15;;;;;;;5.97;0.57;;;;;;;20.20;75.97;100442.97;7359897;19;20034;-66
2023/07/12 00:20:44;;;;;;;6.03;0.70;;;;;;;20.17;75.90;100445.28;7359256;19;20026;-65
2023/07/12 00:23:15;;;;;;;7.82;0.75;;;;;;;20.12;76.29;100458.47;7361817;19;20023;-65
2023/07/12 00:25:44;;;;;;;5.30;0.55;;;;;;;20.06;76.40;100455.66;7363654;19;20388;-65
2023/07/12 00:28:20;;;;;;;6.95;0.70;;;;;;;20.04;76.20;100467.63;7362965;19;20018;-64
2023/07/12 00:30:48;;;;;;;10.77;2.28;;;;;;;20.02;76.89;100451.81;7360152;19;20010;-65
2023/07/12 00:33:17;;;;;;;4.72;1.50;;;;;;;20.03;76.52;100456.13;7361251;19;20086;-65
2023/07/12 00:35:45;;;;;;;6.07;0.75;;;;;;;20.04;76.05;100456.94;7363218;19;20014;-65
2023/07/12 00:38:17;;;;;;;4.82;0.50;;;;;;;20.03;76.11;100455.31;7360720;19;20022;-65
2023/07/12 00:40:47;;;;;;;5.68;0.50;;;;;;;19.98;76.04;100461.31;7363060;19;20462;-65
2023/07/12 00:43:18;;;;;;;4.10;0.50;;;;;;;19.91;76.09;100470.47;7365238;19;20014;-65
2023/07/12 00:45:49;;;;;;;5.60;0.50;;;;;;;19.83;76.55;100470.75;7360763;19;20045;-64
2023/07/12 00:48:17;;;;;;;3.50;0.40;;;;;;;19.83;76.34;100473.41;7361017;19;20078;-65
2023/07/12 00:50:45;;;;;;;6.72;0.50;;;;;;;19.84;76.86;100475.06;7360131;19;20014;-64
2023/07/12 00:53:18;;;;;;;4.93;1.02;;;;;;;19.83;76.59;100476.91;7359893;19;20022;-65
2023/07/12 00:55:51;;;;;;;4.32;0.65;;;;;;;19.87;76.84;100466.59;7365349;19;20032;-64
2023/07/12 00:58:19;;;;;;;9.45;0.60;;;;;;;19.84;76.67;100467.88;7358373;19;20022;-66
2023/07/12 01:00:47;;;;;;;7.05;0.50;;;;;;;19.81;76.12;100464.81;7363547;19;21600;-66
2023/07/12 01:03:16;;;;;;;5.88;0.70;;;;;;;19.81;76.99;100470.97;7364927;19;20471;-65
2023/07/12 01:05:45;;;;;;;5.65;0.47;;;;;;;19.83;77.06;100474.25;7363682;19;20328;-64
2023/07/12 01:08:14;;;;;;;11.57;0.68;;;;;;;19.85;77.11;100474.03;7363297;19;20018;-64
2023/07/12 01:10:41;;;;;;;3.10;0.50;;;;;;;19.86;77.13;100473.00;7366260;19;20029;-65
2023/07/12 01:13:09;;;;;;;4.10;0.40;;;;;;;19.81;76.50;100478.19;7362688;19;20011;-65
2023/07/12 01:15:37;;;;;;;7.07;0.70;;;;;;;19.72;76.54;100477.63;7362008;19;20010;-64
2023/07/12 01:18:07;;;;;;;6.85;1.10;;;;;;;19.65;77.59;100476.91;7358553;19;21234;-66
2023/07/12 01:20:37;;;;;;;4.82;0.50;;;;;;;19.65;77.45;100476.91;7363210;19;20010;-65
2023/07/12 01:23:05;;;;;;;4.93;0.60;;;;;;;19.65;77.52;100482.25;7363316;19;20014;-64
2023/07/12 01:25:35;;;;;;;4.68;0.47;;;;;;;19.64;77.65;100489.44;7362986;19;20489;-65
2023/07/12 01:28:02;;;;;;;5.60;0.70;;;;;;;19.54;77.20;100482.97;7365168;19;20522;-66
2023/07/12 01:30:31;;;;;;;6.10;0.63;;;;;;;19.49;78.11;100491.63;7362411;19;20022;-65
2023/07/12 01:32:58;;;;;;;5.78;0.63;;;;;;;19.44;78.40;100488.81;7364280;19;20774;-65
2023/07/12 01:35:26;;;;;;;3.55;0.50;;;;;;;19.46;78.52;100494.72;7363304;19;20022;-66
2023/07/12 01:37:53;;;;;;;5.88;0.73;;;;;;;19.40;78.37;100500.91;7360834;19;20007;-65
2023/07/12 01:40:21;;;;;;;4.07;0.50;;;;;;;19.41;78.62;100499.88;7361787;19;20471;-65
2023/07/12 01:42:49;;;;;;;6.95;0.70;;;;;;;19.45;77.94;100505.63;7366429;19;20014;-65
2023/07/12 01:45:16;;;;;;;5.43;0.68;;;;;;;19.41;78.20;100499.03;7363883;19;20007;-65
2023/07/12 01:47:44;;;;;;;5.88;0.60;;;;;;;19.38;78.61;100502.97;7363133;19;20117;-64
2023/07/12 01:50:11;;;;;;;4.30;0.68;;;;;;;19.35;78.70;100497.28;7361238;19;20337;-65
2023/07/12 01:52:38;;;;;;;6.05;0.80;;;;;;;19.31;78.19;100504.88;7363506;19;21004;-64
2023/07/12 01:55:06;;;;;;;5.75;0.70;;;;;;;19.25;78.51;100504.94;7364921;19;20362;-66
2023/07/12 01:57:33;;;;;;;15.32;5.47;;;;;;;19.21;79.06;100501.88;7360851;19;20595;-65
2023/07/12 02:00:01;;;;;;;4.70;0.70;;;;;;;19.14;79.24;100507.28;7360929;19;20018;-64
2023/07/12 02:02:29;;;;;;;6.05;0.65;;;;;;;19.06;79.81;100506.72;7367570;19;20507;-66
2023/07/12 02:04:56;;;;;;;7.82;0.90;;;;;;;19.02;79.57;100501.00;7374378;19;20014;-65
2023/07/12 02:07:24;;;;;;;4.10;0.82;;;;;;;19.01;79.93;100494.03;7378018;19;20139;-65
2023/07/12 02:09:57;;;;;;;6.38;1.35;;;;;;;19.01;79.55;100498.53;7376173;19;20090;-65
2023/07/12 02:12:24;;;;;;;6.55;1.00;;;;;;;19.06;79.73;100498.72;7377294;19;20021;-65
2023/07/12 02:14:52;;;;;;;8.48;1.00;;;;;;;19.08;80.03;100499.31;7374022;19;20121;-65
2023/07/12 02:17:19;;;;;;;4.30;0.77;;;;;;;19.08;80.09;100494.00;7374442;19;20018;-64
2023/07/12 02:19:46;;;;;;;4.45;0.90;;;;;;;18.98;80.04;100497.13;7371554;19;20086;-65
2023/07/12 02:22:13;;;;;;;6.43;0.88;;;;;;;18.96;80.06;100488.53;7377554;19;20018;-65
2023/07/12 02:24:41;;;;;;;4.25;0.93;;;;;;;18.95;80.23;100486.88;7374767;19;20014;-64
2023/07/12 02:27:08;;;;;;;3.65;0.68;;;;;;;18.93;80.54;100486.31;7375612;19;20014;-65
2023/07/12 02:29:35;;;;;;;7.00;0.70;;;;;;;18.94;80.78;100487.94;7373601;19;20017;-65
2023/07/12 02:32:03;;;;;;;3.60;1.00;;;;;;;18.90;80.80;100497.38;7373140;19;20013;-65
2023/07/12 02:34:30;;;;;;;6.13;1.02;;;;;;;18.83;80.73;100501.13;7374559;19;20089;-65
2023/07/12 02:36:58;;;;;;;4.68;0.75;;;;;;;18.78;80.60;100497.28;7375666;19;20011;-65
2023/07/12 02:39:25;;;;;;;5.68;0.88;;;;;;;18.78;80.68;100494.59;7374017;19;20011;-64
2023/07/12 02:41:52;;;;;;;4.30;0.73;;;;;;;18.75;81.15;100494.19;7377603;19;20014;-64
2023/07/12 02:44:21;;;;;;;4.38;0.80;;;;;;;18.74;81.25;100500.59;7373935;19;20114;-65
2023/07/12 02:46:48;;;;;;;5.03;1.40;;;;;;;18.78;81.09;100496.44;7376804;19;20011;-65
2023/07/12 02:49:16;;;;;;;2.88;0.70;;;;;;;18.80;81.26;100497.03;7372868;19;20014;-65
2023/07/12 02:51:43;;;;;;;6.63;1.02;;;;;;;18.80;81.10;100497.03;7373445;19;20363;-65
2023/07/12 02:54:10;;;;;;;6.05;1.15;;;;;;;18.79;80.96;100500.75;7372205;19;20662;-64
2023/07/12 02:56:38;;;;;;;5.38;1.00;;;;;;;18.77;81.27;100495.63;7375049;19;20086;-64
2023/07/12 02:59:05;;;;;;;6.40;1.20;;;;;;;18.77;81.77;100497.47;7370925;19;20093;-64
2023/07/12 03:01:33;;;;;;;8.25;0.90;;;;;;;18.76;82.08;100501.16;7368606;19;20015;-65
2023/07/12 03:04:00;;;;;;;5.18;1.08;;;;;;;18.78;81.69;100502.59;7373467;19;19999;-65
2023/07/12 03:06:28;;;;;;;5.90;2.00;;;;;;;18.82;81.44;100508.31;7373031;19;20006;-65
2023/07/12 03:08:55;;;;;;;5.85;1.20;;;;;;;18.83;81.53;100511.81;7373821;19;20013;-65
2023/07/12 03:11:22;;;;;;;2.85;0.95;;;;;;;18.79;81.41;100509.53;7375464;19;20082;-65
2023/07/12 03:13:50;;;;;;;6.97;1.98;;;;;;;18.77;81.27;100506.28;7373000;19;20110;-64
2023/07/12 03:16:18;;;;;;;4.88;1.10;;;;;;;18.74;81.37;100505.91;7364732;19;20037;-67
2023/07/12 03:18:45;;;;;;;4.38;1.20;;;;;;;18.69;81.37;100506.53;7365391;19;20018;-65
2023/07/12 03:21:12;;;;;;;5.47;1.30;;;;;;;18.69;81.27;100508.41;7366279;19;20333;-65
2023/07/12 03:23:42;;;;;;;5.35;0.98;;;;;;;18.71;81.57;100507.16;7366267;19;20324;-65
2023/07/12 03:26:09;;;;;;;3.90;0.80;;;;;;;18.69;81.50;100513.72;7362746;19;20089;-65
2023/07/12 03:28:37;;;;;;;2.55;0.70;;;;;;;18.69;81.59;100511.84;7365411;19;20014;-65
2023/07/12 03:31:07;;;;;;;6.25;0.73;;;;;;;18.70;81.46;100502.03;7360745;19;20019;-64
2023/07/12 03:33:35;;;;;;;9.48;1.50;;;;;;;18.69;81.91;100511.06;7364723;19;20027;-64
2023/07/12 03:36:03;;;;;;;4.38;1.05;;;;;;;18.72;81.99;100510.63;7364878;19;20022;-65
2023/07/12 03:38:31;;;;;;;4.88;0.80;;;;;;;18.73;82.17;100513.09;7365855;19;20006;-64
2023/07/12 03:41:02;;;;;;;3.45;0.90;;;;;;;18.65;81.39;100525.81;7366619;19;20014;-65
2023/07/12 03:43:31;;;;;;;5.70;1.10;;;;;;;18.60;82.39;100525.66;7367449;19;20017;-65
2023/07/12 03:45:58;;;;;;;3.75;0.90;;;;;;;18.56;81.84;100517.28;7366676;19;20014;-65
2023/07/12 03:48:26;;;;;;;3.97;1.35;;;;;;;18.61;82.57;100520.13;7364254;19;20018;-65
2023/07/12 03:50:55;;;;;;;7.15;1.45;;;;;;;18.57;81.69;100513.59;7366944;19;20017;-65
2023/07/12 03:53:23;;;;;;;3.58;1.20;;;;;;;18.48;81.72;100509.50;7366536;19;20033;-65
2023/07/12 03:55:51;;;;;;;2.65;1.02;;;;;;;18.43;82.13;100517.31;7366192;19;20026;-65
2023/07/12 03:58:21;;;;;;;5.25;0.93;;;;;;;18.34;82.17;100519.38;7360579;19;20361;-65
2023/07/12 04:00:50;;;;;;;7.10;1.30;;;;;;;18.31;82.97;100522.47;7354486;19;20353;-64
2023/07/12 04:03:18;;;;;;;3.67;1.00;;;;;;;18.30;83.15;100517.34;7364122;19;20106;-65
2023/07/12 04:05:50;;;;;;;4.40;0.93;;;;;;;18.31;83.22;100527.81;7364578;19;20090;-64
2023/07/12 04:08:19;;;;;;;3.93;1.00;;;;;;;18.32;83.02;100532.09;7361705;19;20498;-67
2023/07/12 04:10:50;;;;;;;4.20;1.10;;;;;;;18.35;82.88;100539.66;7366237;19;20081;-65
2023/07/12 04:13:18;;;;;;;3.42;1.38;;;;;;;18.35;82.65;100542.34;7365641;19;20013;-64
2023/07/12 04:15:45;;;;;;;4.70;1.08;;;;;;;18.33;82.68;100546.25;7367850;19;20014;-65
2023/07/12 04:18:12;;;;;;;5.13;1.10;;;;;;;18.29;82.85;100553.81;7363378;19;20010;-64
2023/07/12 04:20:40;;;;;;;4.30;1.00;;;;;;;18.29;83.09;100550.34;7362140;19;20018;-64
2023/07/12 04:23:07;;;;;;;4.45;1.20;;;;;;;18.31;83.00;100554.44;7363116;19;20022;-65
2023/07/12 04:25:35;;;;;;;5.30;0.95;;;;;;;18.29;82.70;100555.66;7363464;19;20033;-66
2023/07/12 04:28:02;;;;;;;6.30;0.80;;;;;;;18.28;83.24;100562.88;7360681;19;20018;-65
2023/07/12 04:30:30;;;;;;;3.35;1.02;;;;;;;18.26;82.96;100559.59;7358858;19;20010;-65
2023/07/12 04:32:57;;;;;;;3.65;0.88;;;;;;;18.25;82.68;100560.59;7360022;19;20748;-65
2023/07/12 04:35:24;;;;;;;5.85;0.88;;;;;;;18.26;82.99;100566.75;7359981;19;20014;-65
2023/07/12 04:37:51;;;;;;;4.70;1.20;;;;;;;18.25;82.77;100565.13;7360911;19;20022;-65
2023/07/12 04:40:19;;;;;;;4.10;0.88;;;;;;;18.26;83.14;100562.25;7360923;19;20018;-64
2023/07/12 04:42:46;;;;;;;6.93;1.02;;;;;;;18.28;83.42;100567.38;7364216;19;20021;-65
2023/07/12 04:45:14;;;;;;;6.03;1.05;;;;;;;18.31;83.30;100565.09;7361531;19;20025;-65
2023/07/12 04:47:42;;;;;;;4.45;0.82;;;;;;;18.32;82.82;100566.75;7361342;19;20031;-65
2023/07/12 04:50:11;;;;;;;5.25;0.88;;;;;;;18.31;82.84;100570.44;7360412;19;21749;-65
2023/07/12 04:52:39;;;;;;;3.22;0.70;;;;;;;18.31;82.47;100578.41;7361470;19;20014;-66
2023/07/12 04:55:21;;;;;;;3.85;0.80;;;;;;;18.34;82.79;100577.16;7359345;19;20059;-64
2023/07/12 04:57:48;;;;;;;7.28;0.77;;;;;;;18.30;82.72;100581.28;7360129;19;20006;-64
2023/07/12 05:00:16;;;;;;;6.13;0.98;;;;;;;18.27;82.95;100581.72;7356065;19;20537;-64
2023/07/12 05:02:43;;;;;;;3.38;0.73;;;;;;;18.25;82.46;100591.75;7355611;19;20046;-65
2023/07/12 05:05:11;;;;;;;3.63;0.70;;;;;;;18.21;82.28;100590.53;7357783;19;20908;-66
2023/07/12 05:07:40;;;;;;;4.35;0.80;;;;;;;18.19;82.54;100595.25;7360224;19;20558;-65
2023/07/12 05:10:10;;;;;;;3.50;0.60;;;;;;;18.18;82.43;100598.97;7360164;19;20014;-65
2023/07/12 05:12:38;;;;;;;7.50;0.70;;;;;;;18.17;83.63;100587.47;7360489;19;20985;-65
2023/07/12 05:15:07;;;;;;;3.13;0.70;;;;;;;18.22;82.99;100594.84;7357104;19;20014;-65
2023/07/12 05:17:35;;;;;;;4.80;0.77;;;;;;;18.21;82.43;100590.53;7356751;19;20043;-65
2023/07/12 05:20:04;;;;;;;4.80;0.75;;;;;;;18.23;82.41;100591.97;7355975;19;20022;-64
2023/07/12 05:22:31;;;;;;;4.32;0.63;;;;;;;18.17;82.26;100591.97;7360579;19;20022;-64
2023/07/12 05:24:59;;;;;;;4.13;1.60;;;;;;;18.15;82.41;100602.84;7360395;19;20022;-66
2023/07/12 05:27:27;;;;;;;3.22;0.50;;;;;;;18.17;82.47;100605.31;7360202;19;20025;-65
2023/07/12 05:29:54;;;;;;;3.72;0.60;;;;;;;18.19;82.61;100608.56;7362045;19;20024;-65
2023/07/12 05:32:22;;;;;;;2.95;0.70;;;;;;;18.18;82.38;100602.44;7358972;19;20376;-65
2023/07/12 05:34:49;;;;;;;6.65;0.55;;;;;;;18.11;81.93;100608.78;7357821;19;20043;-65
2023/07/12 05:37:17;;;;;;;6.50;0.90;;;;;;;18.06;82.24;100609.41;7356202;19;20344;-65
2023/07/12 05:39:44;;;;;;;2.53;0.60;;;;;;;18.06;82.61;100613.91;7357248;19;20440;-65
2023/07/12 05:42:12;;;;;;;3.47;0.70;;;;;;;18.09;83.08;100614.31;7359319;19;20497;-67
2023/07/12 05:44:39;;;;;;;4.10;0.60;;;;;;;18.09;82.94;100618.81;7359204;19;20026;-65
2023/07/12 05:47:07;;;;;;;3.55;0.60;;;;;;;18.14;82.73;100627.81;7355650;19;20814;-65
2023/07/12 05:49:35;;;;;;;4.97;0.77;;;;;;;18.16;82.58;100620.47;7357318;19;20025;-65
2023/07/12 05:52:06;;;;;;;4.85;0.80;;;;;;;18.17;82.48;100624.78;7356277;19;20022;-66
2023/07/12 05:54:33;;;;;;;4.28;0.60;;;;;;;18.18;81.95;100629.06;7358374;19;20388;-66
2023/07/12 05:57:01;;;;;;;5.97;1.15;;;;;;;18.21;82.52;100623.31;7357540;19;20014;-65
2023/07/12 05:59:29;;;;;;;3.53;0.50;;;;;;;18.23;82.46;100615.13;7358279;19;20013;-64
2023/07/12 06:01:56;;;;;;;3.90;0.60;;;;;;;18.19;81.86;100624.53;7353778;19;20020;-66
2023/07/12 06:04:23;;;;;;;2.97;0.90;;;;;;;18.15;82.28;100632.13;7355026;19;20015;-65
2023/07/12 06:06:52;;;;;;;5.35;0.70;;;;;;;18.14;82.15;100635.00;7358346;19;20471;-65
2023/07/12 06:09:19;;;;;;;3.40;0.88;;;;;;;18.08;82.10;100630.53;7358489;19;20017;-66
2023/07/12 06:11:47;;;;;;;6.43;0.73;;;;;;;18.05;82.46;100639.72;7358498;19;20006;-65
2023/07/12 06:14:14;;;;;;;5.03;0.70;;;;;;;18.09;82.82;100632.97;7357137;19;20026;-64
2023/07/12 06:16:43;;;;;;;4.18;0.60;;;;;;;18.17;82.56;100639.94;7357224;19;20621;-65
2023/07/12 06:19:10;;;;;;;5.82;0.65;;;;;;;18.21;82.43;100644.63;7354832;19;20773;-65
2023/07/12 06:21:38;;;;;;;6.35;0.70;;;;;;;18.20;81.87;100644.81;7357327;19;20025;-65
2023/07/12 06:24:07;;;;;;;5.75;1.00;;;;;;;18.23;82.02;100650.59;7356445;19;20018;-65
2023/07/12 06:26:34;;;;;;;5.43;0.80;;;;;;;18.26;82.13;100652.00;7358483;19;20034;-65
2023/07/12 06:29:02;;;;;;;7.35;0.68;;;;;;;18.23;81.41;100650.59;7356545;19;20117;-66
2023/07/12 06:31:29;;;;;;;5.00;0.80;;;;;;;18.28;81.83;100655.28;7356667;19;20014;-65
2023/07/12 06:34:00;;;;;;;6.47;0.93;;;;;;;18.28;81.79;100649.97;7355897;19;20018;-64
2023/07/12 06:36:28;;;;;;;7.30;0.80;;;;;;;18.31;81.77;100658.34;7357340;19;20022;-66
2023/07/12 06:38:55;;;;;;;7.18;0.82;;;;;;;18.41;81.47;100665.09;7354817;19;20014;-64
2023/07/12 06:41:22;;;;;;;4.55;0.60;;;;;;;18.50;80.89;100651.34;7357660;19;20023;-65
2023/07/12 06:43:49;;;;;;;5.20;0.70;;;;;;;18.60;80.67;100664.25;7353252;19;20021;-65
2023/07/12 06:46:18;;;;;;;3.53;0.88;;;;;;;18.64;80.16;100660.16;7355246;19;20018;-65
2023/07/12 06:48:46;;;;;;;3.10;0.60;;;;;;;18.71;79.85;100660.94;7353057;19;20018;-65
2023/07/12 06:51:13;;;;;;;5.15;0.70;;;;;;;18.76;79.11;100664.63;7362397;19;20018;-65
2023/07/12 06:53:40;;;;;;;3.22;0.60;;;;;;;18.82;79.44;100654.13;7362600;19;20010;-66
2023/07/12 06:56:07;;;;;;;6.80;0.95;;;;;;;18.83;78.90;100656.59;7364200;19;20025;-66
2023/07/12 06:58:35;;;;;;;7.35;0.90;;;;;;;18.83;78.75;100672.59;7364064;19;20059;-66
2023/07/12 07:01:07;;;;;;;3.92;0.75;;;;;;;18.85;79.34;100680.38;7360539;19;20152;-65
2023/07/12 07:03:35;;;;;;;4.60;0.80;;;;;;;18.86;78.90;100674.00;7360193;19;20090;-65
2023/07/12 07:06:03;;;;;;;7.35;1.00;;;;;;;18.82;78.86;100680.81;7361155;19;20031;-65
2023/07/12 07:08:31;;;;;;;8.10;0.90;;;;;;;18.78;78.67;100675.91;7361641;19;20022;-66
2023/07/12 07:11:00;;;;;;;9.55;1.20;;;;;;;18.75;79.02;100681.63;7363517;19;20567;-66
2023/07/12 07:13:28;;;;;;;6.10;1.80;;;;;;;18.80;79.48;100687.16;7364590;19;20398;-65
2023/07/12 07:15:57;;;;;;;6.28;1.10;;;;;;;18.85;78.86;100688.38;7361993;19;20025;-65
2023/07/12 07:18:24;;;;;;;6.63;1.40;;;;;;;18.85;78.76;100681.19;7294632;19;20018;-65
2023/07/12 07:20:52;;;;;;;7.30;1.27;;;;;;;18.87;78.36;100691.66;7357563;19;20033;-64
2023/07/12 07:23:20;;;;;;;5.70;0.90;;;;;;;18.84;77.67;100692.91;7360285;19;20030;-66
2023/07/12 07:25:48;;;;;;;4.75;0.80;;;;;;;18.92;78.22;100686.50;7358726;19;20018;-66
2023/07/12 07:28:15;;;;;;;6.65;0.85;;;;;;;19.01;78.04;100695.91;7360408;19;20041;-67
2023/07/12 07:30:43;;;;;;;6.78;0.88;;;;;;;19.11;77.90;100710.44;7357133;19;20130;-65
2023/07/12 07:33:11;;;;;;;2.97;0.80;;;;;;;19.16;77.19;100697.28;7359380;19;20760;-66
2023/07/12 07:35:38;;;;;;;6.28;1.50;;;;;;;19.16;76.17;100704.47;7362196;19;21607;-66
2023/07/12 07:38:05;;;;;;;4.10;0.68;;;;;;;19.22;76.75;100703.63;7362424;19;20019;-65
2023/07/12 07:40:33;;;;;;;3.67;0.70;;;;;;;19.28;77.25;100713.44;7361223;19;20034;-66
2023/07/12 07:43:01;;;;;;;9.85;0.85;;;;;;;19.44;76.53;100712.16;7364184;19;20070;-66
2023/07/12 07:45:28;;;;;;;4.05;0.85;;;;;;;19.55;76.06;100715.00;7361531;19;20094;-66
2023/07/12 07:47:56;;;;;;;3.65;0.77;;;;;;;19.76;76.08;100716.47;7360056;19;20011;-66
2023/07/12 07:50:23;;;;;;;9.63;0.90;;;;;;;20.18;75.00;100725.63;7362437;19;20477;-66
2023/07/12 07:52:53;;;;;;;4.38;0.80;;;;;;;20.69;72.29;100725.41;7364906;19;21190;-65
2023/07/12 07:55:21;;;;;;;5.05;0.68;;;;;;;20.94;70.58;100725.34;7361946;19;20892;-68
2023/07/12 07:57:49;;;;;;;5.07;1.15;;;;;;;21.10;70.10;100723.91;7360827;19;20090;-67
2023/07/12 08:00:17;;;;;;;6.63;0.80;;;;;;;21.13;69.51;100726.16;7358961;19;20014;-67
2023/07/12 08:02:46;;;;;;;6.45;1.35;;;;;;;21.17;69.04;100725.50;7361658;19;21009;-66
2023/07/12 08:05:14;;;;;;;6.70;0.68;;;;;;;21.16;67.49;100733.75;7356894;19;20018;-65
2023/07/12 08:07:46;;;;;;;3.28;0.45;;;;;;;21.19;68.82;100736.78;7363475;19;20139;-65
2023/07/12 08:10:17;;;;;;;8.73;1.10;;;;;;;21.16;67.49;100747.16;7362441;19;20029;-65
2023/07/12 08:12:48;;;;;;;9.50;1.30;;;;;;;21.20;68.91;100738.44;7361838;19;20937;-65
2023/07/12 08:15:18;;;;;;;6.43;0.80;;;;;;;21.12;67.70;100736.03;7361854;19;20018;-66
2023/07/12 08:17:46;;;;;;;6.55;0.70;;;;;;;21.04;67.48;100740.84;7361102;19;20006;-66
2023/07/12 08:20:14;;;;;;;9.77;0.70;;;;;;;21.01;68.05;100741.31;7361889;19;20019;-66
2023/07/12 08:22:42;;;;;;;3.55;0.50;;;;;;;21.02;68.84;100742.97;7360717;19;21046;-66
2023/07/12 08:25:09;;;;;;;3.90;0.80;;;;;;;21.04;69.38;100736.31;7362590;19;20029;-65
2023/07/12 08:27:36;;;;;;;3.80;0.55;;;;;;;21.07;67.89;100746.59;7361970;19;20003;-68
2023/07/12 08:30:05;;;;;;;5.88;0.68;;;;;;;21.17;67.34;100749.59;7360660;19;20025;-66
2023/07/12 08:32:33;;;;;;;5.40;0.60;;;;;;;21.23;67.72;100739.88;7360632;19;20022;-67
2023/07/12 08:35:03;;;;;;;4.10;0.45;;;;;;;21.19;65.05;100741.34;7360919;19;20039;-67
2023/07/12 08:37:33;;;;;;;5.35;0.95;;;;;;;21.07;64.43;100730.56;7363119;19;20022;-66
2023/07/12 08:40:00;;;;;;;9.80;0.70;;;;;;;20.96;65.36;100733.97;7362919;19;20102;-67
2023/07/12 08:42:38;;;;;;;8.13;0.70;;;;;;;20.86;65.21;100737.16;7362952;19;20026;-66
2023/07/12 08:45:16;;;;;;;5.32;0.47;;;;;;;20.76;64.41;100744.88;7362350;19;20474;-66
2023/07/12 08:47:46;;;;;;;3.13;0.50;;;;;;;20.70;64.36;100745.75;7362228;19;20014;-66
2023/07/12 08:50:15;;;;;;;2.90;0.60;;;;;;;20.67;63.96;100742.72;7363808;19;20028;-66
2023/07/12 08:52:45;;;;;;;2.78;0.43;;;;;;;20.71;64.24;100750.06;7363829;19;20014;-66
2023/07/12 08:55:19;;;;;;;2.85;0.50;;;;;;;20.72;64.15;100741.03;7361537;19;21016;-67
2023/07/12 08:57:54;;;;;;;5.60;0.50;;;;;;;20.70;64.25;100744.94;7363383;19;20081;-68
2023/07/12 09:00:26;;;;;;;4.78;0.90;;;;;;;20.85;65.19;100742.72;7360442;19;21074;-65
2023/07/12 09:02:54;;;;;;;4.88;0.50;;;;;;;20.93;63.94;100743.25;7359225;19;20019;-65
2023/07/12 09:05:24;;;;;;;4.60;0.50;;;;;;;20.90;63.16;100734.84;7355445;19;20055;-66
2023/07/12 09:07:56;;;;;;;4.05;0.45;;;;;;;20.88;63.13;100737.75;7296399;19;20042;-65
2023/07/12 09:10:33;;;;;;;5.72;0.50;;;;;;;20.90;63.60;100734.84;7355511;19;20014;-66
2023/07/12 09:13:02;;;;;;;2.13;0.65;;;;;;;20.95;64.61;100736.84;7355256;19;20025;-66
2023/07/12 09:15:34;;;;;;;2.67;0.40;;;;;;;20.95;62.46;100740.34;7357630;19;20014;-66
2023/07/12 09:18:07;;;;;;;4.40;0.45;;;;;;;21.04;61.50;100746.22;7358576;19;20018;-66
2023/07/12 09:20:40;;;;;;;4.85;0.50;;;;;;;21.04;60.84;100746.22;7353984;19;20015;-66
2023/07/12 09:23:11;;;;;;;4.22;0.40;;;;;;;21.08;61.77;100739.41;7356538;19;20109;-66
2023/07/12 09:25:39;;;;;;;7.38;0.60;;;;;;;21.20;62.28;100737.63;7359489;19;20011;-66
2023/07/12 09:28:12;;;;;;;3.67;0.40;;;;;;;21.24;61.16;100736.94;7358517;19;20451;-65
2023/07/12 09:30:41;;;;;;;5.55;0.47;;;;;;;21.26;62.02;100734.88;7356241;19;20037;-66
2023/07/12 09:33:16;;;;;;;6.10;0.47;;;;;;;21.26;62.79;100737.53;7354435;19;20011;-66
2023/07/12 09:35:45;;;;;;;2.47;0.40;;;;;;;21.21;62.07;100739.25;7359571;19;20003;-66
2023/07/12 09:38:18;;;;;;;6.03;0.40;;;;;;;21.11;61.52;100739.75;7357165;19;20021;-66
2023/07/12 09:40:48;;;;;;;2.63;0.30;;;;;;;21.01;62.10;100744.00;7360347;19;20040;-66
2023/07/12 09:43:18;;;;;;;3.80;0.60;;;;;;;20.95;62.96;100745.69;7360327;19;20026;-66
2023/07/12 09:45:51;;;;;;;3.10;0.40;;;;;;;20.93;63.86;100745.91;7359322;19;20014;-66
2023/07/12 09:48:41;;;;;;;;;;;;;;;20.87;63.64;100756.72;7358228;19;20022;-64
2023/07/12 09:51:15;;;;;;;4.65;0.70;;;;;;;20.80;64.19;100735.38;7357970;19;20462;-65
2023/07/12 09:53:51;;;;;;;4.68;0.50;;;;;;;20.83;63.64;100723.38;7357974;19;20006;-66
2023/07/12 09:56:33;;;;;;;5.40;1.02;;;;;;;20.90;64.01;100727.66;7360646;19;20681;-65
2023/07/12 09:59:28;;;;;;;3.65;1.05;;;;;;;21.05;64.28;100732.63;7359136;19;20037;-66
2023/07/12 10:02:26;;;;;;;5.05;0.45;;;;;;;21.21;65.54;100732.06;7354264;19;20089;-65
2023/07/12 10:05:21;;;;;;;5.43;0.63;;;;;;;21.27;63.38;100733.84;7351128;19;20730;-65
2023/07/12 10:07:55;;;;;;;4.68;0.40;;;;;;;21.34;62.62;100726.50;7356137;19;20038;-65
2023/07/12 10:10:34;;;;;;;2.05;0.40;;;;;;;21.41;62.33;100731.78;7353851;19;20018;-66
2023/07/12 10:13:13;;;;;;;4.05;0.40;;;;;;;21.48;62.68;100740.56;7359487;19;20018;-65
2023/07/12 10:15:41;;;;;;;3.88;0.40;;;;;;;21.58;60.24;100743.53;7358488;19;20014;-66
2023/07/12 10:18:19;;;;;;;3.45;0.40;;;;;;;21.69;60.59;100734.69;7356478;19;20019;-65
2023/07/12 10:20:49;;;;;;;3.83;0.60;;;;;;;21.78;60.06;100745.91;7359975;19;20839;-66
2023/07/12 10:23:20;;;;;;;1.75;0.40;;;;;;;21.86;59.52;100739.41;7359688;19;20134;-66
2023/07/12 10:25:55;;;;;;;5.95;0.30;;;;;;;21.98;59.13;100737.59;7367801;19;20015;-65
2023/07/12 10:28:42;;;;;;;3.20;0.40;;;;;;;22.10;58.25;100746.47;7364495;19;20142;-65
2023/07/12 10:31:30;;;;;;;3.55;0.40;;;;;;;22.20;57.82;100733.31;7364261;19;20021;-65
2023/07/12 10:34:15;;;;;;;2.13;0.30;;;;;;;22.27;57.90;100738.56;7362872;19;20018;-64
2023/07/12 10:36:44;;;;;;;4.50;0.25;;;;;;;22.26;58.21;100734.25;7360579;19;20185;-65
2023/07/12 10:39:12;;;;;;;2.30;0.20;;;;;;;22.22;57.78;100717.00;7365092;19;21055;-68
2023/07/12 10:41:46;;;;;;;2.15;0.30;;;;;;;22.20;58.51;100727.16;7365075;19;20014;-66
2023/07/12 10:44:20;;;;;;;4.20;0.60;;;;;;;22.26;57.84;100721.66;7366026;19;20015;-66
2023/07/12 10:46:54;;;;;;;2.35;0.20;;;;;;;22.31;56.88;100718.28;7364490;19;20026;-66
2023/07/12 10:49:41;;;;;;;2.75;0.30;;;;;;;22.31;57.16;100720.97;7363330;19;20025;-65
2023/07/12 10:52:09;;;;;;;2.08;0.30;;;;;;;22.30;56.75;100725.50;7366059;19;20023;-65
2023/07/12 10:54:39;;;;;;;2.38;0.28;;;;;;;22.29;56.55;100729.28;7361762;19;20021;-66
2023/07/12 10:57:24;;;;;;;1.65;0.20;;;;;;;22.20;56.39;100716.44;7365580;19;20010;-65
2023/07/12 11:00:17;;;;;;;3.83;0.40;;;;;;;22.09;57.16;100723.41;7362428;19;20014;-65
2023/07/12 11:02:57;;;;;;;3.53;0.40;;;;;;;22.01;56.23;100729.09;7364403;19;20046;-66
2023/07/12 11:05:37;;;;;;;2.20;0.28;;;;;;;21.92;56.18;100727.78;7365228;19;20030;-65
2023/07/12 11:08:04;;;;;;;5.80;0.30;;;;;;;21.93;55.68;100729.41;7358330;19;20015;-66
2023/07/12 11:10:36;;;;;;;1.85;0.50;;;;;;;21.93;56.09;100729.41;7361101;19;20018;-67
2023/07/12 11:13:11;;;;;;;3.13;0.40;;;;;;;21.96;56.48;100728.97;7362431;19;20018;-66
2023/07/12 11:15:50;;;;;;;1.30;0.20;;;;;;;21.98;55.30;100727.72;7363293;19;20022;-65
2023/07/12 11:18:24;;;;;;;1.73;0.20;;;;;;;22.00;55.42;100722.09;7364213;19;20795;-65
2023/07/12 11:21:03;;;;;;;1.63;0.30;;;;;;;21.98;55.94;100722.34;7363661;19;21381;-67
2023/07/12 11:23:48;;;;;;;1.75;0.20;;;;;;;21.99;56.61;100732.00;7362056;19;20819;-65
2023/07/12 11:26:28;;;;;;;3.20;0.30;;;;;;;22.03;55.67;100724.34;7364481;19;20038;-65
2023/07/12 11:29:14;;;;;;;1.67;0.35;;;;;;;22.04;55.18;100724.13;7365544;19;21753;-66
2023/07/12 11:31:49;;;;;;;5.30;0.68;;;;;;;22.16;55.70;100726.78;7359944;19;20789;-65
2023/07/12 11:34:23;;;;;;;23.40;7.85;;;;;;;22.27;56.23;100723.31;7361779;19;20022;-65
2023/07/12 11:36:55;;;;;;;2.47;0.50;;;;;;;22.37;54.86;100720.88;7362160;19;20050;-65